createdAt,value
2022-09-04T00:02:29.737Z,20.10
2022-09-04T00:05:20.857Z,20.00
2022-09-04T00:07:58.410Z,20.00
2022-09-04T00:11:00.670Z,20.00
2022-09-04T00:13:38.222Z,20.00
2022-09-04T00:16:20.091Z,19.90
2022-09-04T00:18:59.701Z,19.80
2022-09-04T00:22:00.476Z,19.70
2022-09-04T00:24:38.433Z,19.70
2022-09-04T00:27:13.856Z,19.70
2022-09-04T00:30:02.501Z,19.70
2022-09-04T00:33:00.419Z,19.80
2022-09-04T00:35:33.880Z,19.90
2022-09-04T00:38:08.560Z,20.00
2022-09-04T00:40:39.753Z,20.00
2022-09-04T00:43:40.628Z,19.90
2022-09-04T00:46:38.197Z,19.80
2022-09-04T00:49:43.101Z,19.80
2022-09-04T00:52:36.277Z,19.80
2022-09-04T00:55:45.585Z,19.80
2022-09-04T00:58:34.533Z,19.80
2022-09-04T01:01:02.644Z,19.70
2022-09-04T01:03:48.469Z,19.70
2022-09-04T01:06:42.446Z,19.70
2022-09-04T01:09:12.337Z,19.70
2022-09-04T01:11:39.185Z,19.70
2022-09-04T01:14:29.776Z,19.60
2022-09-04T01:17:41.743Z,19.70
2022-09-04T01:20:20.372Z,19.80
2022-09-04T01:23:19.353Z,19.70
2022-09-04T01:26:09.120Z,19.60
2022-09-04T01:28:36.064Z,19.60
2022-09-04T01:31:21.628Z,19.70
2022-09-04T01:34:16.138Z,19.70
2022-09-04T01:36:57.731Z,19.70
2022-09-04T01:39:28.186Z,19.70
2022-09-04T01:42:34.745Z,19.60
2022-09-04T01:45:02.895Z,19.50
2022-09-04T01:47:43.373Z,19.50
2022-09-04T01:50:18.332Z,19.50
2022-09-04T01:53:02.313Z,19.50
2022-09-04T01:55:50.990Z,19.50
2022-09-04T01:58:43.483Z,19.50
2022-09-04T02:01:38.523Z,19.50
2022-09-04T02:04:21.236Z,19.50
2022-09-04T02:07:27.814Z,19.50
2022-09-04T02:10:00.901Z,19.50
2022-09-04T02:12:35.964Z,19.40
2022-09-04T02:15:10.028Z,19.40
2022-09-04T02:17:46.823Z,19.40
2022-09-04T02:20:31.281Z,19.30
2022-09-04T02:23:30.230Z,19.40
2022-09-04T02:26:45.372Z,19.40
2022-09-04T02:29:25.982Z,19.30
2022-09-04T02:32:13.377Z,19.30
2022-09-04T02:34:48.069Z,19.10
2022-09-04T02:37:25.024Z,19.00
2022-09-04T02:40:37.849Z,19.10
2022-09-04T02:43:57.816Z,18.90
2022-09-04T02:46:57.269Z,18.90
2022-09-04T02:49:54.370Z,18.90
2022-09-04T02:52:59.820Z,18.90
2022-09-04T02:55:57.991Z,18.90
2022-09-04T02:58:50.379Z,18.80
2022-09-04T03:01:59.663Z,18.80
2022-09-04T03:05:12.518Z,18.80
2022-09-04T03:08:19.212Z,18.70
2022-09-04T03:11:20.363Z,18.70
2022-09-04T03:14:05.565Z,18.60
2022-09-04T03:16:54.452Z,18.60
2022-09-04T03:19:31.031Z,18.50
2022-09-04T03:22:16.359Z,18.50
2022-09-04T03:25:25.291Z,18.50
2022-09-04T03:27:52.700Z,18.50
2022-09-04T03:30:20.131Z,18.40
2022-09-04T03:32:53.002Z,18.50
2022-09-04T03:35:39.805Z,18.40
2022-09-04T03:38:18.361Z,18.40
2022-09-04T03:41:11.245Z,18.50
2022-09-04T03:43:40.887Z,18.60
2022-09-04T03:46:24.024Z,18.60
2022-09-04T03:49:06.594Z,18.60
2022-09-04T03:51:42.624Z,18.60
2022-09-04T03:54:12.863Z,18.70
2022-09-04T03:57:20.041Z,18.80
2022-09-04T04:00:18.406Z,18.70
2022-09-04T04:03:28.457Z,18.60
2022-09-04T04:06:14.916Z,18.60
2022-09-04T04:09:19.639Z,18.60
2022-09-04T04:11:53.284Z,18.70
2022-09-04T04:14:42.413Z,18.60
2022-09-04T04:17:20.534Z,18.50
2022-09-04T04:20:26.929Z,18.60
2022-09-04T04:23:21.052Z,18.60
2022-09-04T04:26:05.678Z,18.60
2022-09-04T04:29:03.137Z,18.60
2022-09-04T04:32:10.667Z,18.50
2022-09-04T04:35:16.541Z,18.50
2022-09-04T04:38:22.541Z,18.60
2022-09-04T04:41:09.888Z,18.50
2022-09-04T04:43:55.380Z,18.40
2022-09-04T04:47:15.655Z,18.40
2022-09-04T04:50:06.469Z,18.30
2022-09-04T04:52:46.152Z,18.40
2022-09-04T04:55:50.563Z,18.40
2022-09-04T04:58:40.434Z,18.40
2022-09-04T05:01:16.513Z,18.30
2022-09-04T05:03:48.937Z,18.20
2022-09-04T05:06:36.338Z,18.20
2022-09-04T05:09:23.067Z,18.30
2022-09-04T05:12:27.647Z,18.30
2022-09-04T05:15:28.624Z,18.40
2022-09-04T05:18:06.867Z,18.30
2022-09-04T05:20:38.102Z,18.30
2022-09-04T05:23:42.560Z,18.30
2022-09-04T05:26:46.315Z,18.30
2022-09-04T05:29:32.430Z,18.30
2022-09-04T05:32:08.445Z,18.30
2022-09-04T05:35:12.992Z,18.30
2022-09-04T05:38:13.981Z,18.30
2022-09-04T05:40:58.260Z,18.30
2022-09-04T05:43:31.379Z,18.40
2022-09-04T05:46:01.063Z,18.30
2022-09-04T05:49:01.915Z,18.30
2022-09-04T05:51:54.741Z,18.40
2022-09-04T05:54:49.569Z,18.40
2022-09-04T05:57:27.407Z,18.50
2022-09-04T06:00:08.061Z,18.50
2022-09-04T06:02:53.237Z,18.50
2022-09-04T06:05:29.093Z,18.50
2022-09-04T06:08:21.564Z,18.50
2022-09-04T06:11:03.082Z,18.60
2022-09-04T06:13:54.411Z,18.50
2022-09-04T06:16:42.613Z,18.60
2022-09-04T06:19:35.621Z,18.60
2022-09-04T06:22:41.688Z,18.60
2022-09-04T06:25:37.851Z,18.60
2022-09-04T06:28:16.622Z,18.70
2022-09-04T06:30:53.691Z,18.70
2022-09-04T06:33:40.491Z,18.80
2022-09-04T06:36:29.733Z,18.90
2022-09-04T06:39:18.195Z,19.10
2022-09-04T06:42:06.113Z,19.00
2022-09-04T06:45:06.856Z,19.00
2022-09-04T06:47:53.482Z,19.00
2022-09-04T06:50:39.284Z,19.20
2022-09-04T06:53:42.637Z,19.40
2022-09-04T06:56:41.278Z,19.40
2022-09-04T06:59:42.432Z,19.50
2022-09-04T07:02:31.247Z,19.60
2022-09-04T07:05:47.756Z,19.70
2022-09-04T07:08:23.956Z,20.00
2022-09-04T07:11:08.518Z,20.10
2022-09-04T07:13:49.286Z,20.20
2022-09-04T07:16:41.012Z,20.40
2022-09-04T07:19:16.663Z,20.40
2022-09-04T07:22:06.583Z,20.60
2022-09-04T07:24:48.495Z,20.70
2022-09-04T07:27:28.154Z,20.80
2022-09-04T07:29:59.926Z,20.80
2022-09-04T07:32:35.143Z,21.00
2022-09-04T07:35:37.282Z,21.00
2022-09-04T07:38:38.986Z,21.00
2022-09-04T07:41:16.880Z,20.90
2022-09-04T07:44:05.130Z,20.90
2022-09-04T07:46:40.467Z,20.90
2022-09-04T07:49:37.753Z,21.00
2022-09-04T07:52:23.403Z,21.20
2022-09-04T07:55:17.838Z,21.20
2022-09-04T07:57:58.128Z,21.30
2022-09-04T08:00:26.755Z,21.40
2022-09-04T08:03:20.589Z,21.50
2022-09-04T08:06:10.350Z,21.60
2022-09-04T08:08:43.406Z,21.80
2022-09-04T08:11:17.233Z,22.00
2022-09-04T08:14:11.411Z,22.20
2022-09-04T08:16:57.157Z,22.40
2022-09-04T08:19:29.799Z,22.50
2022-09-04T08:22:03.363Z,22.70
2022-09-04T08:24:50.239Z,22.90
2022-09-04T08:27:55.618Z,22.90
2022-09-04T08:30:23.931Z,22.90
2022-09-04T08:33:17.047Z,23.00
2022-09-04T08:35:58.050Z,23.30
2022-09-04T08:38:49.090Z,23.60
2022-09-04T08:41:50.304Z,23.80
2022-09-04T08:44:32.789Z,24.00
2022-09-04T08:47:33.756Z,24.10
2022-09-04T08:50:26.460Z,24.40
2022-09-04T08:53:12.173Z,24.40
2022-09-04T08:56:06.487Z,24.50
2022-09-04T08:59:10.081Z,24.50
2022-09-04T09:02:18.753Z,24.50
2022-09-04T09:04:55.232Z,24.70
2022-09-04T09:07:28.578Z,24.70
2022-09-04T09:10:13.092Z,24.90
2022-09-04T09:12:58.468Z,25.10
2022-09-04T09:15:54.048Z,25.30
2022-09-04T09:18:46.142Z,25.30
2022-09-04T09:21:38.212Z,25.50
2022-09-04T09:24:27.186Z,25.50
2022-09-04T09:27:31.293Z,25.60
2022-09-04T09:30:09.821Z,25.90
2022-09-04T09:33:05.673Z,26.20
2022-09-04T09:36:10.598Z,26.30
2022-09-04T09:39:06.212Z,27.10
2022-09-04T09:41:59.765Z,27.60
2022-09-04T09:45:01.621Z,28.30
2022-09-04T09:47:31.320Z,28.70
2022-09-04T09:50:21.275Z,29.30
2022-09-04T09:53:13.544Z,29.50
2022-09-04T09:55:59.515Z,29.30
2022-09-04T09:58:45.513Z,29.60
2022-09-04T10:01:31.648Z,30.20
2022-09-04T10:04:30.721Z,30.70
2022-09-04T10:07:42.798Z,31.20
2022-09-04T10:10:22.421Z,31.40
2022-09-04T10:12:55.423Z,30.90
2022-09-04T10:16:01.593Z,31.00
2022-09-04T10:18:50.648Z,31.20
2022-09-04T10:21:50.837Z,32.10
2022-09-04T10:24:57.784Z,33.00
2022-09-04T10:27:35.002Z,33.00
2022-09-04T10:30:06.589Z,32.80
2022-09-04T10:32:51.972Z,32.50
2022-09-04T10:35:26.383Z,32.60
2022-09-04T10:38:05.401Z,32.80
2022-09-04T10:40:57.474Z,32.90
2022-09-04T10:43:43.370Z,32.90
2022-09-04T10:46:23.022Z,32.80
2022-09-04T10:49:21.818Z,33.50
2022-09-04T10:52:00.353Z,32.90
2022-09-04T10:55:04.747Z,32.40
2022-09-04T10:57:50.571Z,33.30
2022-09-04T11:00:22.980Z,34.50
2022-09-04T11:03:03.439Z,35.40
2022-09-04T11:05:52.155Z,35.10
2022-09-04T11:08:47.565Z,33.80
2022-09-04T11:11:33.513Z,33.60
2022-09-04T11:14:06.440Z,33.50
2022-09-04T11:17:13.330Z,33.40
2022-09-04T11:20:18.393Z,33.60
2022-09-04T11:23:12.477Z,34.30
2022-09-04T11:26:08.530Z,34.50
2022-09-04T11:28:44.234Z,34.60
2022-09-04T11:31:25.941Z,35.20
2022-09-04T11:33:58.887Z,34.80
2022-09-04T11:36:41.253Z,34.70
2022-09-04T11:39:26.273Z,34.20
2022-09-04T11:42:11.932Z,34.20
2022-09-04T11:44:50.688Z,35.00
2022-09-04T11:47:42.371Z,34.20
2022-09-04T11:50:35.206Z,34.60
2022-09-04T11:53:11.661Z,34.00
2022-09-04T11:55:57.557Z,34.10
2022-09-04T11:58:49.685Z,34.60
2022-09-04T12:01:29.748Z,35.00
2022-09-04T12:04:23.345Z,35.30
2022-09-04T12:07:14.159Z,35.40
2022-09-04T12:09:41.109Z,34.90
2022-09-04T12:12:11.603Z,35.00
2022-09-04T12:14:41.572Z,34.90
2022-09-04T12:17:44.206Z,34.60
2022-09-04T12:20:38.758Z,34.60
2022-09-04T12:23:11.638Z,34.60
2022-09-04T12:26:01.471Z,34.80
2022-09-04T12:28:38.040Z,34.80
2022-09-04T12:31:42.493Z,35.40
2022-09-04T12:34:46.819Z,35.00
2022-09-04T12:37:22.673Z,35.00
2022-09-04T12:40:01.768Z,34.10
2022-09-04T12:42:52.982Z,34.60
2022-09-04T12:45:31.287Z,34.00
2022-09-04T12:48:33.718Z,33.60
2022-09-04T12:51:13.620Z,32.90
2022-09-04T12:53:48.197Z,32.90
2022-09-04T12:56:56.331Z,32.80
2022-09-04T12:59:27.936Z,33.30
2022-09-04T13:02:01.891Z,32.80
2022-09-04T13:04:35.220Z,33.00
2022-09-04T13:07:15.907Z,33.40
2022-09-04T13:09:53.347Z,33.10
2022-09-04T13:12:42.250Z,32.90
2022-09-04T13:15:14.491Z,33.30
2022-09-04T13:17:44.124Z,33.00
2022-09-04T13:20:10.985Z,33.40
2022-09-04T13:22:48.428Z,33.60
2022-09-04T13:25:42.830Z,33.50
2022-09-04T13:28:23.938Z,33.20
2022-09-04T13:31:05.923Z,33.40
2022-09-04T13:33:57.847Z,33.60
2022-09-04T13:36:54.374Z,34.20
2022-09-04T13:39:54.801Z,35.10
2022-09-04T13:42:44.747Z,35.40
2022-09-04T13:45:19.459Z,35.70
2022-09-04T13:47:53.720Z,36.70
2022-09-04T13:50:33.018Z,38.30
2022-09-04T13:53:16.052Z,38.00
2022-09-04T13:55:49.967Z,38.00
2022-09-04T13:58:20.310Z,38.10
2022-09-04T14:00:59.338Z,37.70
2022-09-04T14:03:36.917Z,36.80
2022-09-04T14:06:09.032Z,36.50
2022-09-04T14:08:43.276Z,36.80
2022-09-04T14:11:30.485Z,37.90
2022-09-04T14:14:11.913Z,37.60
2022-09-04T14:16:44.336Z,36.30
2022-09-04T14:19:40.140Z,35.30
2022-09-04T14:22:56.647Z,36.00
2022-09-04T14:25:51.237Z,35.50
2022-09-04T14:28:38.506Z,35.40
2022-09-04T14:31:33.976Z,35.00
2022-09-04T14:34:16.581Z,34.80
2022-09-04T14:37:00.505Z,35.50
2022-09-04T14:39:48.220Z,35.70
2022-09-04T14:42:24.862Z,35.80
2022-09-04T14:45:10.162Z,35.90
2022-09-04T14:48:03.655Z,35.60
2022-09-04T14:50:43.430Z,35.40
2022-09-04T14:53:10.728Z,35.50
2022-09-04T14:56:01.993Z,35.00
2022-09-04T14:58:33.333Z,33.50
2022-09-04T15:01:07.364Z,33.80
2022-09-04T15:03:49.807Z,34.70
2022-09-04T15:06:25.855Z,35.80
2022-09-04T15:08:55.589Z,37.40
2022-09-04T15:11:34.860Z,38.20
2022-09-04T15:14:28.547Z,37.10
2022-09-04T15:17:06.259Z,36.70
2022-09-04T15:19:53.446Z,36.70
2022-09-04T15:22:40.749Z,36.60
2022-09-04T15:25:56.838Z,36.30
2022-09-04T15:28:32.039Z,36.00
2022-09-04T15:31:21.024Z,36.40
2022-09-04T15:33:49.235Z,36.40
2022-09-04T15:36:20.962Z,36.50
2022-09-04T15:38:53.918Z,36.50
2022-09-04T15:42:09.308Z,36.50
2022-09-04T15:44:45.132Z,36.30
2022-09-04T15:47:55.859Z,36.50
2022-09-04T15:50:29.384Z,36.30
2022-09-04T15:53:25.113Z,36.30
2022-09-04T15:56:09.513Z,35.80
2022-09-04T15:58:54.247Z,34.70
2022-09-04T16:01:30.113Z,34.90
2022-09-04T16:04:07.547Z,35.10
2022-09-04T16:06:45.334Z,35.50
2022-09-04T16:09:29.199Z,35.80
2022-09-04T16:12:10.433Z,36.30
2022-09-04T16:14:56.504Z,36.50
2022-09-04T16:17:33.918Z,36.80
2022-09-04T16:20:35.928Z,36.70
2022-09-04T16:23:09.947Z,37.10
2022-09-04T16:25:50.446Z,36.90
2022-09-04T16:28:33.847Z,35.90
2022-09-04T16:31:12.437Z,35.90
2022-09-04T16:33:50.971Z,35.40
2022-09-04T16:36:22.969Z,35.20
2022-09-04T16:38:57.382Z,35.30
2022-09-04T16:41:38.877Z,35.30
2022-09-04T16:44:14.344Z,35.20
2022-09-04T16:47:15.052Z,35.50
2022-09-04T16:50:02.644Z,35.20
2022-09-04T16:52:45.018Z,35.00
2022-09-04T16:55:31.304Z,34.80
2022-09-04T16:58:35.121Z,34.20
2022-09-04T17:01:14.265Z,33.70
2022-09-04T17:03:52.320Z,33.20
2022-09-04T17:07:15.885Z,33.30
2022-09-04T17:09:50.363Z,33.10
2022-09-04T17:12:35.774Z,32.50
2022-09-04T17:15:11.539Z,32.60
2022-09-04T17:17:42.623Z,32.60
2022-09-04T17:20:23.843Z,32.40
2022-09-04T17:29:01.921Z,31.90
2022-09-04T17:29:18.361Z,31.70
2022-09-04T17:30:04.749Z,31.50
2022-09-04T17:36:19.189Z,31.30
2022-09-04T17:40:43.703Z,31.00
2022-09-04T17:41:31.303Z,30.90
2022-09-04T17:42:15.690Z,31.20
2022-09-04T17:44:56.777Z,31.20
2022-09-04T17:47:29.073Z,30.80
2022-09-04T17:49:57.179Z,30.60
2022-09-04T17:52:28.263Z,30.40
2022-09-04T17:55:09.200Z,30.10
2022-09-04T17:58:13.811Z,29.80
2022-09-04T18:01:14.220Z,29.40
2022-09-04T18:04:19.980Z,29.00
2022-09-04T18:06:51.755Z,28.60
2022-09-04T18:09:51.657Z,28.30
2022-09-04T18:12:52.197Z,28.00
2022-09-04T18:15:33.651Z,27.60
2022-09-04T18:18:13.518Z,27.50
2022-09-04T18:20:46.936Z,27.30
2022-09-04T18:23:51.712Z,27.10
2022-09-04T18:26:34.042Z,26.90
2022-09-04T18:30:28.809Z,26.80
2022-09-04T18:37:22.288Z,26.70
2022-09-04T18:37:25.654Z,26.40
2022-09-04T18:38:34.073Z,26.30
2022-09-04T18:43:12.246Z,26.00
2022-09-04T18:50:20.770Z,25.90
2022-09-04T18:50:30.653Z,25.70
2022-09-04T18:50:44.949Z,25.50
2022-09-04T18:53:00.770Z,25.40
2022-09-04T18:55:48.206Z,25.30
2022-09-04T18:58:15.062Z,25.20
2022-09-04T19:01:03.975Z,25.10
2022-09-04T19:03:48.346Z,25.10
2022-09-04T19:06:36.469Z,25.00
2022-09-04T19:09:19.775Z,24.90
2022-09-04T19:11:54.312Z,24.80
2022-09-04T19:14:29.149Z,24.80
2022-09-04T19:17:03.301Z,24.70
2022-09-04T19:19:37.224Z,24.60
2022-09-04T19:22:18.284Z,24.40
2022-09-04T19:24:51.855Z,24.40
2022-09-04T19:27:45.738Z,24.30
2022-09-04T19:30:20.114Z,24.30
2022-09-04T19:32:57.898Z,24.10
2022-09-04T19:35:42.487Z,24.10
2022-09-04T19:41:19.843Z,24.20
2022-09-04T19:46:01.039Z,24.20
2022-09-04T19:46:18.862Z,24.10
2022-09-04T19:47:27.152Z,23.90
2022-09-04T19:53:22.330Z,23.80
2022-09-04T19:53:35.888Z,23.80
2022-09-04T19:55:50.203Z,23.90
2022-09-04T19:58:44.235Z,23.80
2022-09-04T20:01:18.117Z,23.90
2022-09-04T20:03:58.978Z,23.80
2022-09-04T20:06:36.512Z,23.70
2022-09-04T20:09:30.828Z,23.70
2022-09-04T20:12:41.294Z,23.60
2022-09-04T20:15:13.118Z,23.60
2022-09-04T20:18:18.449Z,23.30
2022-09-04T20:20:54.785Z,23.40
2022-09-04T20:23:35.205Z,23.40
2022-09-04T20:26:52.727Z,23.40
2022-09-04T20:29:29.542Z,23.40
2022-09-04T20:32:01.260Z,23.30
2022-09-04T20:34:31.362Z,23.30
2022-09-04T20:37:28.580Z,23.40
2022-09-04T20:40:30.276Z,23.30
2022-09-04T20:43:03.220Z,23.30
2022-09-04T20:48:24.380Z,23.10
2022-09-04T20:52:50.863Z,23.00
2022-09-04T20:52:56.254Z,23.00
2022-09-04T20:54:40.038Z,23.10
2022-09-04T21:00:31.445Z,23.10
2022-09-04T21:03:15.216Z,23.10
2022-09-04T21:03:39.053Z,23.00
2022-09-04T21:06:25.286Z,23.00
2022-09-04T21:09:09.546Z,22.90
2022-09-04T21:11:47.298Z,22.90
2022-09-04T21:14:39.706Z,22.90
2022-09-04T21:17:59.481Z,22.90
2022-09-04T21:20:59.852Z,22.90
2022-09-04T21:23:36.569Z,22.90
2022-09-04T21:26:03.569Z,22.80
2022-09-04T21:32:39.589Z,22.80
2022-09-04T21:35:27.280Z,22.80
2022-09-04T21:38:14.821Z,22.70
2022-09-04T21:41:09.366Z,22.70
2022-09-04T21:43:58.294Z,22.60
2022-09-04T21:46:49.747Z,22.50
2022-09-04T21:49:28.782Z,22.50
2022-09-04T21:52:13.990Z,22.50
2022-09-04T21:58:52.406Z,22.40
2022-09-04T22:02:30.531Z,22.30
2022-09-04T22:02:36.515Z,22.40
2022-09-04T22:03:54.805Z,22.50
2022-09-04T22:07:45.793Z,22.40
2022-09-04T22:13:30.445Z,22.50
2022-09-04T22:13:40.087Z,22.50
2022-09-04T22:15:45.957Z,22.40
2022-09-04T22:18:40.224Z,22.40
2022-09-04T22:21:26.840Z,22.40
2022-09-04T22:23:56.461Z,22.30
2022-09-04T22:27:01.521Z,22.30
2022-09-04T22:29:58.179Z,22.20
2022-09-04T22:32:51.165Z,22.20
2022-09-04T22:35:51.734Z,22.10
2022-09-04T22:38:50.568Z,22.00
2022-09-04T22:41:26.464Z,22.00
2022-09-04T22:44:15.562Z,21.90
2022-09-04T22:47:26.248Z,21.80
2022-09-04T22:50:39.108Z,21.70
2022-09-04T22:53:35.254Z,21.70
2022-09-04T22:56:23.695Z,21.70
2022-09-04T22:59:25.667Z,21.70
2022-09-04T23:02:13.449Z,21.80
2022-09-04T23:04:48.158Z,21.70
2022-09-04T23:12:26.801Z,21.70
2022-09-04T23:13:59.329Z,21.80
2022-09-04T23:14:07.698Z,21.70
2022-09-04T23:17:17.482Z,21.80
2022-09-04T23:26:32.225Z,21.80
2022-09-04T23:26:43.056Z,21.80
2022-09-04T23:26:57.852Z,21.90
2022-09-04T23:29:41.233Z,21.90
2022-09-04T23:32:16.281Z,21.90
2022-09-04T23:35:14.727Z,22.00
2022-09-04T23:38:16.748Z,21.90
2022-09-04T23:40:53.445Z,21.90
2022-09-04T23:44:04.307Z,21.80
2022-09-04T23:46:52.473Z,21.70
2022-09-04T23:49:37.980Z,21.60
2022-09-04T23:52:48.687Z,21.60
2022-09-04T23:55:56.124Z,21.70
2022-09-04T23:59:16.750Z,21.70
